sensor_id;sensor_type;location;lat;lon;timestamp;temperature;humidity
67050;DHT22;53955;52.442;13.284;2023-02-28T00:01:20;5.50;50.00
67050;DHT22;53955;52.442;13.284;2023-02-28T00:03:47;5.40;50.80
67050;DHT22;53955;52.442;13.284;2023-02-28T00:06:13;5.40;50.20
67050;DHT22;53955;52.442;13.284;2023-02-28T00:08:40;5.30;50.20
67050;DHT22;53955;52.442;13.284;2023-02-28T00:11:09;5.20;50.50
67050;DHT22;53955;52.442;13.284;2023-02-28T00:13:37;5.20;50.80
67050;DHT22;53955;52.442;13.284;2023-02-28T00:16:05;5.40;50.80
67050;DHT22;53955;52.442;13.284;2023-02-28T00:18:35;5.30;50.90
67050;DHT22;53955;52.442;13.284;2023-02-28T00:21:02;5.40;49.80
67050;DHT22;53955;52.442;13.284;2023-02-28T00:23:28;5.30;50.20
67050;DHT22;53955;52.442;13.284;2023-02-28T00:25:55;5.30;50.60
67050;DHT22;53955;52.442;13.284;2023-02-28T00:28:22;5.20;51.10
67050;DHT22;53955;52.442;13.284;2023-02-28T00:30:49;5.40;49.60
67050;DHT22;53955;52.442;13.284;2023-02-28T00:33:16;5.30;50.60
67050;DHT22;53955;52.442;13.284;2023-02-28T00:35:44;5.50;50.20
67050;DHT22;53955;52.442;13.284;2023-02-28T00:38:12;5.60;50.40
67050;DHT22;53955;52.442;13.284;2023-02-28T00:40:38;5.20;51.00
67050;DHT22;53955;52.442;13.284;2023-02-28T00:43:05;5.50;51.00
67050;DHT22;53955;52.442;13.284;2023-02-28T00:45:32;5.50;50.80
67050;DHT22;53955;52.442;13.284;2023-02-28T00:47:58;5.10;50.30
67050;DHT22;53955;52.442;13.284;2023-02-28T00:50:25;5.10;50.90
67050;DHT22;53955;52.442;13.284;2023-02-28T00:52:53;5.20;51.30
67050;DHT22;53955;52.442;13.284;2023-02-28T00:55:19;5.30;51.10
67050;DHT22;53955;52.442;13.284;2023-02-28T00:57:46;5.30;50.80
67050;DHT22;53955;52.442;13.284;2023-02-28T01:00:13;5.30;50.10
67050;DHT22;53955;52.442;13.284;2023-02-28T01:02:40;5.10;50.80
67050;DHT22;53955;52.442;13.284;2023-02-28T01:05:07;5.20;50.40
67050;DHT22;53955;52.442;13.284;2023-02-28T01:07:34;5.30;51.20
67050;DHT22;53955;52.442;13.284;2023-02-28T01:10:02;5.10;50.90
67050;DHT22;53955;52.442;13.284;2023-02-28T01:12:29;5.40;50.90
67050;DHT22;53955;52.442;13.284;2023-02-28T01:14:56;5.30;50.60
67050;DHT22;53955;52.442;13.284;2023-02-28T01:17:22;5.30;50.40
67050;DHT22;53955;52.442;13.284;2023-02-28T01:19:49;5.20;50.40
67050;DHT22;53955;52.442;13.284;2023-02-28T01:22:15;5.20;50.80
67050;DHT22;53955;52.442;13.284;2023-02-28T01:24:42;5.30;50.70
67050;DHT22;53955;52.442;13.284;2023-02-28T01:27:10;5.10;50.70
67050;DHT22;53955;52.442;13.284;2023-02-28T01:29:36;5.10;50.90
67050;DHT22;53955;52.442;13.284;2023-02-28T01:32:03;5.10;50.60
67050;DHT22;53955;52.442;13.284;2023-02-28T01:34:30;5.10;51.20
67050;DHT22;53955;52.442;13.284;2023-02-28T01:36:56;5.30;50.90
67050;DHT22;53955;52.442;13.284;2023-02-28T01:39:24;5.00;51.00
67050;DHT22;53955;52.442;13.284;2023-02-28T01:41:50;5.20;50.90
67050;DHT22;53955;52.442;13.284;2023-02-28T01:47:23;5.10;51.20
67050;DHT22;53955;52.442;13.284;2023-02-28T01:49:51;5.00;51.70
67050;DHT22;53955;52.442;13.284;2023-02-28T01:52:20;5.00;51.40
67050;DHT22;53955;52.442;13.284;2023-02-28T01:54:51;4.80;51.80
67050;DHT22;53955;52.442;13.284;2023-02-28T01:57:20;4.90;51.50
67050;DHT22;53955;52.442;13.284;2023-02-28T01:59:51;5.00;51.50
67050;DHT22;53955;52.442;13.284;2023-02-28T02:02:22;5.00;51.50
67050;DHT22;53955;52.442;13.284;2023-02-28T02:04:53;4.80;51.00
67050;DHT22;53955;52.442;13.284;2023-02-28T02:07:20;4.80;51.70
67050;DHT22;53955;52.442;13.284;2023-02-28T02:09:47;4.60;52.30
67050;DHT22;53955;52.442;13.284;2023-02-28T02:12:21;4.60;51.90
67050;DHT22;53955;52.442;13.284;2023-02-28T02:15:00;4.50;52.60
67050;DHT22;53955;52.442;13.284;2023-02-28T02:17:34;4.50;52.60
67050;DHT22;53955;52.442;13.284;2023-02-28T02:20:24;4.50;52.00
67050;DHT22;53955;52.442;13.284;2023-02-28T02:26:03;4.70;53.00
67050;DHT22;53955;52.442;13.284;2023-02-28T02:29:06;4.40;53.00
67050;DHT22;53955;52.442;13.284;2023-02-28T02:32:04;4.40;53.60
67050;DHT22;53955;52.442;13.284;2023-02-28T02:34:42;4.40;52.60
67050;DHT22;53955;52.442;13.284;2023-02-28T02:37:19;4.40;53.60
67050;DHT22;53955;52.442;13.284;2023-02-28T02:40:00;4.50;53.20
67050;DHT22;53955;52.442;13.284;2023-02-28T02:42:34;4.30;52.90
67050;DHT22;53955;52.442;13.284;2023-02-28T02:45:06;4.30;53.20
67050;DHT22;53955;52.442;13.284;2023-02-28T02:47:35;4.20;53.70
67050;DHT22;53955;52.442;13.284;2023-02-28T02:50:08;4.00;54.80
67050;DHT22;53955;52.442;13.284;2023-02-28T02:52:39;4.10;53.70
67050;DHT22;53955;52.442;13.284;2023-02-28T02:55:09;4.20;54.00
67050;DHT22;53955;52.442;13.284;2023-02-28T02:57:40;4.00;53.90
67050;DHT22;53955;52.442;13.284;2023-02-28T03:00:10;3.90;54.60
67050;DHT22;53955;52.442;13.284;2023-02-28T03:02:38;4.00;54.30
67050;DHT22;53955;52.442;13.284;2023-02-28T03:05:14;3.80;54.20
67050;DHT22;53955;52.442;13.284;2023-02-28T03:07:43;4.10;55.00
67050;DHT22;53955;52.442;13.284;2023-02-28T03:10:31;3.90;54.60
67050;DHT22;53955;52.442;13.284;2023-02-28T03:13:08;3.90;54.80
67050;DHT22;53955;52.442;13.284;2023-02-28T03:15:46;3.80;54.50
67050;DHT22;53955;52.442;13.284;2023-02-28T03:18:20;3.80;55.00
67050;DHT22;53955;52.442;13.284;2023-02-28T03:20:57;3.80;54.90
67050;DHT22;53955;52.442;13.284;2023-02-28T03:23:35;3.60;54.80
67050;DHT22;53955;52.442;13.284;2023-02-28T03:26:07;3.80;54.80
67050;DHT22;53955;52.442;13.284;2023-02-28T03:28:43;3.70;55.40
67050;DHT22;53955;52.442;13.284;2023-02-28T03:31:18;3.70;56.00
67050;DHT22;53955;52.442;13.284;2023-02-28T03:33:51;3.60;55.90
67050;DHT22;53955;52.442;13.284;2023-02-28T03:36:25;3.70;55.60
67050;DHT22;53955;52.442;13.284;2023-02-28T03:38:56;3.80;54.70
67050;DHT22;53955;52.442;13.284;2023-02-28T03:41:27;3.90;55.40
67050;DHT22;53955;52.442;13.284;2023-02-28T03:43:59;3.70;54.60
67050;DHT22;53955;52.442;13.284;2023-02-28T03:46:28;3.70;55.20
67050;DHT22;53955;52.442;13.284;2023-02-28T03:49:00;3.70;56.50
67050;DHT22;53955;52.442;13.284;2023-02-28T03:51:31;3.50;56.00
67050;DHT22;53955;52.442;13.284;2023-02-28T03:54:03;3.50;56.10
67050;DHT22;53955;52.442;13.284;2023-02-28T03:56:34;3.50;56.20
67050;DHT22;53955;52.442;13.284;2023-02-28T03:59:06;3.50;56.30
67050;DHT22;53955;52.442;13.284;2023-02-28T04:01:38;3.60;56.20
67050;DHT22;53955;52.442;13.284;2023-02-28T04:04:07;3.50;56.80
67050;DHT22;53955;52.442;13.284;2023-02-28T04:06:35;3.50;57.10
67050;DHT22;53955;52.442;13.284;2023-02-28T04:09:03;3.30;57.10
67050;DHT22;53955;52.442;13.284;2023-02-28T04:11:33;3.30;57.60
67050;DHT22;53955;52.442;13.284;2023-02-28T04:14:00;3.40;56.80
67050;DHT22;53955;52.442;13.284;2023-02-28T04:16:27;3.50;56.10
67050;DHT22;53955;52.442;13.284;2023-02-28T04:18:54;3.30;56.00
67050;DHT22;53955;52.442;13.284;2023-02-28T04:21:28;3.30;56.70
67050;DHT22;53955;52.442;13.284;2023-02-28T04:23:57;3.40;57.40
67050;DHT22;53955;52.442;13.284;2023-02-28T04:26:28;3.20;57.20
67050;DHT22;53955;52.442;13.284;2023-02-28T04:28:55;3.30;57.50
67050;DHT22;53955;52.442;13.284;2023-02-28T04:31:21;3.30;57.60
67050;DHT22;53955;52.442;13.284;2023-02-28T04:33:48;4.50;78.10
67050;DHT22;53955;52.442;13.284;2023-02-28T04:36:14;4.10;56.30
67050;DHT22;53955;52.442;13.284;2023-02-28T04:38:43;4.10;55.50
67050;DHT22;53955;52.442;13.284;2023-02-28T04:41:11;3.80;55.40
67050;DHT22;53955;52.442;13.284;2023-02-28T04:43:38;3.70;56.50
67050;DHT22;53955;52.442;13.284;2023-02-28T04:46:05;3.60;56.30
67050;DHT22;53955;52.442;13.284;2023-02-28T04:48:34;3.70;56.40
67050;DHT22;53955;52.442;13.284;2023-02-28T04:51:01;3.50;56.60
67050;DHT22;53955;52.442;13.284;2023-02-28T04:53:29;3.60;56.60
67050;DHT22;53955;52.442;13.284;2023-02-28T04:55:55;3.40;57.40
67050;DHT22;53955;52.442;13.284;2023-02-28T04:58:25;3.30;57.00
67050;DHT22;53955;52.442;13.284;2023-02-28T05:00:52;3.30;57.30
67050;DHT22;53955;52.442;13.284;2023-02-28T05:03:18;3.40;57.50
67050;DHT22;53955;52.442;13.284;2023-02-28T05:05:46;3.10;58.20
67050;DHT22;53955;52.442;13.284;2023-02-28T05:08:13;3.30;57.90
67050;DHT22;53955;52.442;13.284;2023-02-28T05:10:40;3.00;58.00
67050;DHT22;53955;52.442;13.284;2023-02-28T05:13:06;3.10;58.10
67050;DHT22;53955;52.442;13.284;2023-02-28T05:15:35;3.20;57.90
67050;DHT22;53955;52.442;13.284;2023-02-28T05:18:01;3.10;57.90
67050;DHT22;53955;52.442;13.284;2023-02-28T05:20:28;2.90;57.20
67050;DHT22;53955;52.442;13.284;2023-02-28T05:22:54;3.00;57.10
67050;DHT22;53955;52.442;13.284;2023-02-28T05:25:22;2.90;58.20
67050;DHT22;53955;52.442;13.284;2023-02-28T05:27:49;2.80;59.20
67050;DHT22;53955;52.442;13.284;2023-02-28T05:30:16;2.90;59.30
67050;DHT22;53955;52.442;13.284;2023-02-28T05:32:49;2.90;59.00
67050;DHT22;53955;52.442;13.284;2023-02-28T05:35:16;3.10;59.20
67050;DHT22;53955;52.442;13.284;2023-02-28T05:37:42;2.90;59.80
67050;DHT22;53955;52.442;13.284;2023-02-28T05:40:10;3.00;59.10
67050;DHT22;53955;52.442;13.284;2023-02-28T05:42:37;3.10;59.50
67050;DHT22;53955;52.442;13.284;2023-02-28T05:45:05;3.10;59.00
67050;DHT22;53955;52.442;13.284;2023-02-28T05:47:32;3.10;59.10
67050;DHT22;53955;52.442;13.284;2023-02-28T05:50:00;3.20;58.80
67050;DHT22;53955;52.442;13.284;2023-02-28T05:52:27;3.10;58.80
67050;DHT22;53955;52.442;13.284;2023-02-28T05:54:55;3.00;59.70
67050;DHT22;53955;52.442;13.284;2023-02-28T05:57:22;3.10;59.10
67050;DHT22;53955;52.442;13.284;2023-02-28T05:59:49;3.00;59.50
67050;DHT22;53955;52.442;13.284;2023-02-28T06:02:17;2.90;59.80
67050;DHT22;53955;52.442;13.284;2023-02-28T06:04:44;3.20;59.60
67050;DHT22;53955;52.442;13.284;2023-02-28T06:07:12;3.10;59.30
67050;DHT22;53955;52.442;13.284;2023-02-28T06:09:39;3.20;59.50
67050;DHT22;53955;52.442;13.284;2023-02-28T06:12:06;3.20;59.30
67050;DHT22;53955;52.442;13.284;2023-02-28T06:14:35;3.40;59.00
67050;DHT22;53955;52.442;13.284;2023-02-28T06:17:02;3.40;58.80
67050;DHT22;53955;52.442;13.284;2023-02-28T06:19:29;3.90;56.50
67050;DHT22;53955;52.442;13.284;2023-02-28T06:21:56;4.20;55.40
67050;DHT22;53955;52.442;13.284;2023-02-28T06:24:26;4.40;54.70
67050;DHT22;53955;52.442;13.284;2023-02-28T06:26:54;4.40;53.40
67050;DHT22;53955;52.442;13.284;2023-02-28T06:29:20;4.50;53.00
67050;DHT22;53955;52.442;13.284;2023-02-28T06:31:47;4.40;53.00
67050;DHT22;53955;52.442;13.284;2023-02-28T06:34:14;5.00;52.70
67050;DHT22;53955;52.442;13.284;2023-02-28T06:36:41;5.30;51.40
67050;DHT22;53955;52.442;13.284;2023-02-28T06:39:09;5.60;50.30
67050;DHT22;53955;52.442;13.284;2023-02-28T06:41:37;5.80;50.00
67050;DHT22;53955;52.442;13.284;2023-02-28T06:44:05;5.80;49.80
67050;DHT22;53955;52.442;13.284;2023-02-28T06:46:32;5.60;50.30
67050;DHT22;53955;52.442;13.284;2023-02-28T06:48:59;6.00;49.20
67050;DHT22;53955;52.442;13.284;2023-02-28T06:51:25;6.20;48.70
67050;DHT22;53955;52.442;13.284;2023-02-28T06:53:52;6.40;48.80
67050;DHT22;53955;52.442;13.284;2023-02-28T06:56:19;6.60;47.50
67050;DHT22;53955;52.442;13.284;2023-02-28T06:58:48;7.20;45.80
67050;DHT22;53955;52.442;13.284;2023-02-28T07:01:16;8.30;43.30
67050;DHT22;53955;52.442;13.284;2023-02-28T07:03:44;9.40;41.40
67050;DHT22;53955;52.442;13.284;2023-02-28T07:06:11;11.60;37.20
67050;DHT22;53955;52.442;13.284;2023-02-28T07:08:38;13.80;31.80
67050;DHT22;53955;52.442;13.284;2023-02-28T07:11:05;15.80;27.80
67050;DHT22;53955;52.442;13.284;2023-02-28T07:13:32;17.20;24.80
67050;DHT22;53955;52.442;13.284;2023-02-28T07:16:01;18.50;21.30
67050;DHT22;53955;52.442;13.284;2023-02-28T07:18:28;19.30;20.00
67050;DHT22;53955;52.442;13.284;2023-02-28T07:20:55;20.60;18.40
67050;DHT22;53955;52.442;13.284;2023-02-28T07:23:22;21.30;15.90
67050;DHT22;53955;52.442;13.284;2023-02-28T07:25:49;22.10;14.20
67050;DHT22;53955;52.442;13.284;2023-02-28T07:28:15;22.40;13.80
67050;DHT22;53955;52.442;13.284;2023-02-28T07:30:42;23.00;13.10
67050;DHT22;53955;52.442;13.284;2023-02-28T07:33:10;23.10;11.80
67050;DHT22;53955;52.442;13.284;2023-02-28T07:35:37;23.70;11.80
67050;DHT22;53955;52.442;13.284;2023-02-28T07:38:03;23.70;11.00
67050;DHT22;53955;52.442;13.284;2023-02-28T07:40:31;24.30;10.30
67050;DHT22;53955;52.442;13.284;2023-02-28T07:42:59;24.50;9.10
67050;DHT22;53955;52.442;13.284;2023-02-28T07:45:26;24.60;9.40
67050;DHT22;53955;52.442;13.284;2023-02-28T07:47:55;25.00;8.70
67050;DHT22;53955;52.442;13.284;2023-02-28T07:50:23;24.90;8.10
67050;DHT22;53955;52.442;13.284;2023-02-28T07:52:49;24.80;8.50
67050;DHT22;53955;52.442;13.284;2023-02-28T07:55:16;24.90;7.70
67050;DHT22;53955;52.442;13.284;2023-02-28T07:57:43;25.50;7.00
67050;DHT22;53955;52.442;13.284;2023-02-28T08:00:11;26.00;6.90
67050;DHT22;53955;52.442;13.284;2023-02-28T08:02:39;26.80;6.60
67050;DHT22;53955;52.442;13.284;2023-02-28T08:05:06;26.70;6.30
67050;DHT22;53955;52.442;13.284;2023-02-28T08:07:34;26.30;4.40
67050;DHT22;53955;52.442;13.284;2023-02-28T08:10:04;25.50;4.50
67050;DHT22;53955;52.442;13.284;2023-02-28T08:12:31;24.20;4.80
67050;DHT22;53955;52.442;13.284;2023-02-28T08:14:58;23.40;5.70
67050;DHT22;53955;52.442;13.284;2023-02-28T08:17:25;23.60;4.80
67050;DHT22;53955;52.442;13.284;2023-02-28T08:19:51;23.70;4.70
67050;DHT22;53955;52.442;13.284;2023-02-28T08:22:18;23.10;2.70
67050;DHT22;53955;52.442;13.284;2023-02-28T08:24:46;21.40;3.80
67050;DHT22;53955;52.442;13.284;2023-02-28T08:27:13;20.80;5.10
67050;DHT22;53955;52.442;13.284;2023-02-28T08:29:39;19.50;5.60
67050;DHT22;53955;52.442;13.284;2023-02-28T08:32:06;19.10;6.60
67050;DHT22;53955;52.442;13.284;2023-02-28T08:34:33;18.60;7.50
67050;DHT22;53955;52.442;13.284;2023-02-28T08:36:59;19.50;7.60
67050;DHT22;53955;52.442;13.284;2023-02-28T08:39:26;19.60;6.80
67050;DHT22;53955;52.442;13.284;2023-02-28T08:41:54;19.30;6.40
67050;DHT22;53955;52.442;13.284;2023-02-28T08:44:21;19.90;5.70
67050;DHT22;53955;52.442;13.284;2023-02-28T08:46:47;19.70;6.00
67050;DHT22;53955;52.442;13.284;2023-02-28T08:49:14;19.20;5.20
67050;DHT22;53955;52.442;13.284;2023-02-28T08:51:41;18.90;5.50
67050;DHT22;53955;52.442;13.284;2023-02-28T08:54:08;19.00;5.10
67050;DHT22;53955;52.442;13.284;2023-02-28T08:56:35;19.90;4.90
67050;DHT22;53955;52.442;13.284;2023-02-28T08:59:04;21.40;3.00
67050;DHT22;53955;52.442;13.284;2023-02-28T09:01:30;22.50;2.00
67050;DHT22;53955;52.442;13.284;2023-02-28T09:03:58;22.50;2.00
67050;DHT22;53955;52.442;13.284;2023-02-28T09:06:26;22.00;0.50
67050;DHT22;53955;52.442;13.284;2023-02-28T09:08:52;20.40;4.50
67050;DHT22;53955;52.442;13.284;2023-02-28T09:11:19;19.90;4.90
67050;DHT22;53955;52.442;13.284;2023-02-28T09:13:46;19.50;5.60
67050;DHT22;53955;52.442;13.284;2023-02-28T09:16:15;19.80;5.30
67050;DHT22;53955;52.442;13.284;2023-02-28T09:18:43;20.10;3.90
67050;DHT22;53955;52.442;13.284;2023-02-28T09:21:11;19.20;4.00
67050;DHT22;53955;52.442;13.284;2023-02-28T09:23:39;19.00;5.40
67050;DHT22;53955;52.442;13.284;2023-02-28T09:26:06;19.70;5.00
67050;DHT22;53955;52.442;13.284;2023-02-28T09:28:33;18.90;4.80
67050;DHT22;53955;52.442;13.284;2023-02-28T09:31:00;17.80;6.90
67050;DHT22;53955;52.442;13.284;2023-02-28T09:33:29;15.90;8.10
67050;DHT22;53955;52.442;13.284;2023-02-28T09:36:00;14.10;11.20
67050;DHT22;53955;52.442;13.284;2023-02-28T09:38:26;13.00;12.10
67050;DHT22;53955;52.442;13.284;2023-02-28T09:40:55;11.80;16.20
67050;DHT22;53955;52.442;13.284;2023-02-28T09:43:28;11.40;16.50
67050;DHT22;53955;52.442;13.284;2023-02-28T09:45:56;11.10;16.30
67050;DHT22;53955;52.442;13.284;2023-02-28T09:48:28;11.00;16.60
67050;DHT22;53955;52.442;13.284;2023-02-28T09:50:59;10.90;16.90
67050;DHT22;53955;52.442;13.284;2023-02-28T09:53:27;10.70;18.40
67050;DHT22;53955;52.442;13.284;2023-02-28T09:55:59;10.70;17.60
67050;DHT22;53955;52.442;13.284;2023-02-28T09:58:28;10.20;18.00
67050;DHT22;53955;52.442;13.284;2023-02-28T10:00:59;10.40;18.30
67050;DHT22;53955;52.442;13.284;2023-02-28T10:03:28;10.40;19.50
67050;DHT22;53955;52.442;13.284;2023-02-28T10:05:58;10.30;17.70
67050;DHT22;53955;52.442;13.284;2023-02-28T10:08:29;10.20;18.80
67050;DHT22;53955;52.442;13.284;2023-02-28T10:10:57;10.00;19.80
67050;DHT22;53955;52.442;13.284;2023-02-28T10:13:26;10.10;19.00
67050;DHT22;53955;52.442;13.284;2023-02-28T10:15:58;10.30;20.10
67050;DHT22;53955;52.442;13.284;2023-02-28T10:18:29;10.20;20.10
67050;DHT22;53955;52.442;13.284;2023-02-28T10:20:58;10.20;19.80
67050;DHT22;53955;52.442;13.284;2023-02-28T10:23:27;10.10;19.70
67050;DHT22;53955;52.442;13.284;2023-02-28T10:25:55;10.20;19.60
67050;DHT22;53955;52.442;13.284;2023-02-28T10:28:25;10.20;19.70
67050;DHT22;53955;52.442;13.284;2023-02-28T10:30:53;10.00;18.90
67050;DHT22;53955;52.442;13.284;2023-02-28T10:33:24;9.70;18.90
67050;DHT22;53955;52.442;13.284;2023-02-28T10:35:52;9.60;19.80
67050;DHT22;53955;52.442;13.284;2023-02-28T10:38:22;9.30;19.90
67050;DHT22;53955;52.442;13.284;2023-02-28T10:40:50;8.80;20.50
67050;DHT22;53955;52.442;13.284;2023-02-28T10:43:21;9.20;21.10
67050;DHT22;53955;52.442;13.284;2023-02-28T10:45:55;9.50;19.80
67050;DHT22;53955;52.442;13.284;2023-02-28T10:48:37;9.30;19.50
67050;DHT22;53955;52.442;13.284;2023-02-28T10:51:05;9.30;19.30
67050;DHT22;53955;52.442;13.284;2023-02-28T10:53:38;9.20;19.80
67050;DHT22;53955;52.442;13.284;2023-02-28T10:56:15;9.00;20.70
67050;DHT22;53955;52.442;13.284;2023-02-28T10:58:48;9.30;21.30
67050;DHT22;53955;52.442;13.284;2023-02-28T11:01:17;9.70;20.90
67050;DHT22;53955;52.442;13.284;2023-02-28T11:03:44;9.80;20.70
67050;DHT22;53955;52.442;13.284;2023-02-28T11:06:16;9.80;18.90
67050;DHT22;53955;52.442;13.284;2023-02-28T11:08:47;9.40;20.30
67050;DHT22;53955;52.442;13.284;2023-02-28T11:11:14;9.60;21.70
67050;DHT22;53955;52.442;13.284;2023-02-28T11:13:42;9.60;19.90
67050;DHT22;53955;52.442;13.284;2023-02-28T11:16:11;9.50;20.00
67050;DHT22;53955;52.442;13.284;2023-02-28T11:18:42;9.50;21.00
67050;DHT22;53955;52.442;13.284;2023-02-28T11:21:16;9.40;20.80
67050;DHT22;53955;52.442;13.284;2023-02-28T11:23:46;9.10;20.50
67050;DHT22;53955;52.442;13.284;2023-02-28T11:26:14;9.40;21.30
67050;DHT22;53955;52.442;13.284;2023-02-28T11:28:41;9.60;20.30
67050;DHT22;53955;52.442;13.284;2023-02-28T11:31:17;9.70;21.60
67050;DHT22;53955;52.442;13.284;2023-02-28T11:33:46;9.70;19.80
67050;DHT22;53955;52.442;13.284;2023-02-28T11:36:18;9.80;20.30
67050;DHT22;53955;52.442;13.284;2023-02-28T11:38:47;9.80;21.20
67050;DHT22;53955;52.442;13.284;2023-02-28T11:44:31;9.90;20.50
67050;DHT22;53955;52.442;13.284;2023-02-28T11:47:05;9.20;20.70
67050;DHT22;53955;52.442;13.284;2023-02-28T11:49:37;9.10;20.50
67050;DHT22;53955;52.442;13.284;2023-02-28T11:52:20;9.30;22.00
67050;DHT22;53955;52.442;13.284;2023-02-28T11:55:07;9.50;21.00
67050;DHT22;53955;52.442;13.284;2023-02-28T11:57:56;9.80;21.90
67050;DHT22;53955;52.442;13.284;2023-02-28T12:00:38;9.90;19.50
67050;DHT22;53955;52.442;13.284;2023-02-28T12:03:16;10.10;20.90
67050;DHT22;53955;52.442;13.284;2023-02-28T12:05:46;10.20;20.90
67050;DHT22;53955;52.442;13.284;2023-02-28T12:08:26;10.40;19.80
67050;DHT22;53955;52.442;13.284;2023-02-28T12:11:06;10.30;20.20
67050;DHT22;53955;52.442;13.284;2023-02-28T12:13:44;9.90;19.50
67050;DHT22;53955;52.442;13.284;2023-02-28T12:16:37;9.90;20.20
67050;DHT22;53955;52.442;13.284;2023-02-28T12:19:21;9.70;20.10
67050;DHT22;53955;52.442;13.284;2023-02-28T12:22:12;9.70;20.10
67050;DHT22;53955;52.442;13.284;2023-02-28T12:24:55;9.50;20.00
67050;DHT22;53955;52.442;13.284;2023-02-28T12:27:31;9.30;20.70
67050;DHT22;53955;52.442;13.284;2023-02-28T12:30:03;9.10;21.00
67050;DHT22;53955;52.442;13.284;2023-02-28T12:32:35;9.10;21.00
67050;DHT22;53955;52.442;13.284;2023-02-28T12:35:11;8.90;20.40
67050;DHT22;53955;52.442;13.284;2023-02-28T12:37:43;9.20;19.80
67050;DHT22;53955;52.442;13.284;2023-02-28T12:40:14;9.30;20.20
67050;DHT22;53955;52.442;13.284;2023-02-28T12:42:46;9.20;19.90
67050;DHT22;53955;52.442;13.284;2023-02-28T12:45:18;9.10;20.80
67050;DHT22;53955;52.442;13.284;2023-02-28T12:47:48;8.90;21.10
67050;DHT22;53955;52.442;13.284;2023-02-28T12:50:16;9.00;21.00
67050;DHT22;53955;52.442;13.284;2023-02-28T12:52:50;9.30;20.80
67050;DHT22;53955;52.442;13.284;2023-02-28T12:55:23;9.30;20.40
67050;DHT22;53955;52.442;13.284;2023-02-28T12:58:00;9.40;21.40
67050;DHT22;53955;52.442;13.284;2023-02-28T13:00:33;9.60;20.80
67050;DHT22;53955;52.442;13.284;2023-02-28T13:03:27;9.60;20.50
67050;DHT22;53955;52.442;13.284;2023-02-28T13:06:08;9.70;20.90
67050;DHT22;53955;52.442;13.284;2023-02-28T13:08:59;9.80;20.90
67050;DHT22;53955;52.442;13.284;2023-02-28T13:11:29;10.00;20.20
67050;DHT22;53955;52.442;13.284;2023-02-28T13:14:00;10.10;20.20
67050;DHT22;53955;52.442;13.284;2023-02-28T13:16:28;9.70;19.60
67050;DHT22;53955;52.442;13.284;2023-02-28T13:19:18;9.40;20.80
67050;DHT22;53955;52.442;13.284;2023-02-28T13:21:47;9.60;21.80
67050;DHT22;53955;52.442;13.284;2023-02-28T13:24:38;9.70;20.70
67050;DHT22;53955;52.442;13.284;2023-02-28T13:27:24;9.40;21.90
67050;DHT22;53955;52.442;13.284;2023-02-28T13:29:59;9.50;21.80
67050;DHT22;53955;52.442;13.284;2023-02-28T13:32:36;9.50;20.70
67050;DHT22;53955;52.442;13.284;2023-02-28T13:35:34;9.70;20.40
67050;DHT22;53955;52.442;13.284;2023-02-28T13:38:33;9.60;20.40
67050;DHT22;53955;52.442;13.284;2023-02-28T13:44:06;9.80;20.90
67050;DHT22;53955;52.442;13.284;2023-02-28T13:46:37;9.80;20.80
67050;DHT22;53955;52.442;13.284;2023-02-28T13:49:25;9.80;20.80
67050;DHT22;53955;52.442;13.284;2023-02-28T13:51:55;9.90;20.70
67050;DHT22;53955;52.442;13.284;2023-02-28T13:54:40;9.80;20.50
67050;DHT22;53955;52.442;13.284;2023-02-28T13:57:24;9.70;20.50
67050;DHT22;53955;52.442;13.284;2023-02-28T14:00:13;9.50;21.10
67050;DHT22;53955;52.442;13.284;2023-02-28T14:05:38;9.90;20.80
67050;DHT22;53955;52.442;13.284;2023-02-28T14:08:10;9.90;21.00
67050;DHT22;53955;52.442;13.284;2023-02-28T14:10:42;9.90;20.80
67050;DHT22;53955;52.442;13.284;2023-02-28T14:15:57;9.80;20.30
67050;DHT22;53955;52.442;13.284;2023-02-28T14:18:28;9.80;20.80
67050;DHT22;53955;52.442;13.284;2023-02-28T14:21:01;9.70;20.40
67050;DHT22;53955;52.442;13.284;2023-02-28T14:23:52;9.40;20.80
67050;DHT22;53955;52.442;13.284;2023-02-28T14:26:35;9.40;20.70
67050;DHT22;53955;52.442;13.284;2023-02-28T14:29:23;9.50;20.50
67050;DHT22;53955;52.442;13.284;2023-02-28T14:31:58;9.50;20.30
67050;DHT22;53955;52.442;13.284;2023-02-28T14:34:37;9.50;31.00
67050;DHT22;53955;52.442;13.284;2023-02-28T14:37:09;9.60;20.70
67050;DHT22;53955;52.442;13.284;2023-02-28T14:39:41;9.40;21.10
67050;DHT22;53955;52.442;13.284;2023-02-28T14:42:25;9.20;20.60
67050;DHT22;53955;52.442;13.284;2023-02-28T14:44:54;9.40;21.50
67050;DHT22;53955;52.442;13.284;2023-02-28T14:47:23;9.50;20.80
67050;DHT22;53955;52.442;13.284;2023-02-28T14:49:53;9.50;21.10
67050;DHT22;53955;52.442;13.284;2023-02-28T14:52:21;9.60;21.10
67050;DHT22;53955;52.442;13.284;2023-02-28T14:54:53;9.80;20.40
67050;DHT22;53955;52.442;13.284;2023-02-28T14:57:24;9.60;19.50
67050;DHT22;53955;52.442;13.284;2023-02-28T15:00:02;9.70;21.10
67050;DHT22;53955;52.442;13.284;2023-02-28T15:02:36;9.70;21.70
67050;DHT22;53955;52.442;13.284;2023-02-28T15:05:24;9.80;20.90
67050;DHT22;53955;52.442;13.284;2023-02-28T15:08:02;9.70;20.60
67050;DHT22;53955;52.442;13.284;2023-02-28T15:10:29;9.50;21.40
67050;DHT22;53955;52.442;13.284;2023-02-28T15:12:58;9.60;21.30
67050;DHT22;53955;52.442;13.284;2023-02-28T15:15:28;9.50;21.40
67050;DHT22;53955;52.442;13.284;2023-02-28T15:18:04;9.40;21.00
67050;DHT22;53955;52.442;13.284;2023-02-28T15:20:35;9.20;21.30
67050;DHT22;53955;52.442;13.284;2023-02-28T15:23:04;9.10;22.40
67050;DHT22;53955;52.442;13.284;2023-02-28T15:25:31;9.10;21.70
67050;DHT22;53955;52.442;13.284;2023-02-28T15:27:58;9.30;21.70
67050;DHT22;53955;52.442;13.284;2023-02-28T15:30:26;9.40;21.10
67050;DHT22;53955;52.442;13.284;2023-02-28T15:33:07;9.50;21.50
67050;DHT22;53955;52.442;13.284;2023-02-28T15:35:38;9.60;21.40
67050;DHT22;53955;52.442;13.284;2023-02-28T15:38:15;9.60;20.90
67050;DHT22;53955;52.442;13.284;2023-02-28T15:40:43;9.50;21.60
67050;DHT22;53955;52.442;13.284;2023-02-28T15:43:14;9.60;21.70
67050;DHT22;53955;52.442;13.284;2023-02-28T15:45:46;9.40;21.30
67050;DHT22;53955;52.442;13.284;2023-02-28T15:48:21;9.30;21.10
67050;DHT22;53955;52.442;13.284;2023-02-28T15:50:51;9.30;21.30
67050;DHT22;53955;52.442;13.284;2023-02-28T15:53:21;9.30;21.10
67050;DHT22;53955;52.442;13.284;2023-02-28T15:56:00;9.20;21.90
67050;DHT22;53955;52.442;13.284;2023-02-28T15:58:27;9.10;21.50
67050;DHT22;53955;52.442;13.284;2023-02-28T16:01:05;9.10;22.00
67050;DHT22;53955;52.442;13.284;2023-02-28T16:03:45;9.10;22.60
67050;DHT22;53955;52.442;13.284;2023-02-28T16:06:38;9.10;22.50
67050;DHT22;53955;52.442;13.284;2023-02-28T16:09:10;9.50;22.70
67050;DHT22;53955;52.442;13.284;2023-02-28T16:11:39;9.00;23.60